Time;durP1;ratioP1;P1;durP2;ratioP2;P2;SDS_P1;SDS_P2;PMS_P1;PMS_P2;Temp;Humidity;BMP_temperature;BMP_pressure;BME280_temperature;BME280_humidity;BME280_pressure;Samples;Min_cycle;Max_cycle;Signal;HPM_P1;HPM_P2
2022/06/12 00:01:42;;;;;;;23.30;5.15;;;;;;;13.05;77.74;100718.91;5106550;28;20028;-67
2022/06/12 00:04:07;;;;;;;17.27;6.03;;;;;;;13.02;77.81;100716.34;5106068;28;20028;-66
2022/06/12 00:06:32;;;;;;;29.48;6.22;;;;;;;13.01;77.70;100717.22;5106339;28;20028;-67
2022/06/12 00:08:58;;;;;;;38.08;6.90;;;;;;;12.93;77.97;100713.88;5105931;28;20031;-67
2022/06/12 00:11:27;;;;;;;24.33;6.95;;;;;;;12.95;78.01;100712.09;5106091;28;20028;-66
2022/06/12 00:13:56;;;;;;;27.27;6.30;;;;;;;12.87;78.12;100705.28;5105914;28;20055;-67
2022/06/12 00:16:22;;;;;;;24.75;6.38;;;;;;;12.91;78.22;100718.25;5105862;28;20019;-67
2022/06/12 00:18:48;;;;;;;28.85;5.68;;;;;;;12.92;78.38;100720.84;5106031;28;20067;-67
2022/06/12 00:21:15;;;;;;;20.33;5.13;;;;;;;12.90;78.42;100725.19;5106062;28;20020;-67
2022/06/12 00:23:43;;;;;;;23.73;6.03;;;;;;;12.87;78.65;100715.69;5105955;28;20027;-67
2022/06/12 00:26:09;;;;;;;28.95;6.07;;;;;;;12.88;78.49;100722.63;5105844;28;20028;-67
2022/06/12 00:28:35;;;;;;;31.15;6.60;;;;;;;12.87;78.70;100713.09;5105307;28;20023;-67
2022/06/12 00:31:00;;;;;;;26.90;6.85;;;;;;;12.85;78.76;100717.44;5105378;28;20449;-67
2022/06/12 00:33:26;;;;;;;20.30;5.63;;;;;;;12.84;79.03;100713.09;5105385;28;20103;-66
2022/06/12 00:35:51;;;;;;;29.92;6.82;;;;;;;12.85;78.93;100714.84;5105465;28;20053;-66
2022/06/12 00:38:17;;;;;;;21.50;6.22;;;;;;;12.77;78.96;100701.03;5105411;28;20027;-68
2022/06/12 00:40:42;;;;;;;31.60;7.55;;;;;;;12.79;79.50;100712.31;5105461;28;20030;-67
2022/06/12 00:43:13;;;;;;;28.45;6.65;;;;;;;12.80;79.67;100710.56;5105187;28;20048;-67
2022/06/12 00:45:38;;;;;;;30.73;6.68;;;;;;;12.79;79.58;100708.84;5105438;28;20024;-67
2022/06/12 00:48:11;;;;;;;26.58;7.70;;;;;;;12.77;79.80;100707.13;5105278;28;20107;-67
2022/06/12 00:50:42;;;;;;;29.35;6.40;;;;;;;12.72;80.06;100702.84;5105548;28;20016;-67
2022/06/12 00:53:13;;;;;;;31.67;7.03;;;;;;;12.70;80.30;100705.47;5105494;28;20099;-67
2022/06/12 00:56:02;;;;;;;33.80;7.38;;;;;;;12.71;80.48;100702.00;5105400;28;20120;-68
2022/06/12 00:58:33;;;;;;;32.65;7.05;;;;;;;12.69;80.65;100695.06;5104742;28;20067;-68
2022/06/12 01:00:59;;;;;;;36.63;7.28;;;;;;;12.68;80.76;100696.81;5105202;28;20020;-67
2022/06/12 01:03:25;;;;;;;27.90;7.05;;;;;;;12.64;81.27;100689.91;5104875;28;20035;-67
2022/06/12 01:08:55;;;;;;;37.10;7.13;;;;;;;12.64;81.22;100697.72;5041854;28;20332;-67
2022/06/12 01:11:23;;;;;;;29.17;7.00;;;;;;;12.62;81.31;100696.91;5041945;28;20087;-67
2022/06/12 01:13:48;;;;;;;35.63;8.07;;;;;;;12.60;81.81;100694.28;5041371;28;20041;-67
2022/06/12 01:16:18;;;;;;;33.20;7.05;;;;;;;12.62;81.97;100696.91;5041578;28;20029;-67
2022/06/12 01:18:51;;;;;;;43.08;8.68;;;;;;;12.61;82.19;100700.38;5041950;28;20029;-67
2022/06/12 01:21:34;;;;;;;35.15;8.00;;;;;;;12.63;82.36;100698.63;5041935;28;20121;-67
2022/06/12 01:24:17;;;;;;;37.72;7.70;;;;;;;12.68;82.63;100695.97;5041582;28;20026;-67
2022/06/12 01:26:53;;;;;;;34.47;7.82;;;;;;;12.75;82.48;100690.66;5041504;28;20112;-67
2022/06/12 01:29:24;;;;;;;30.48;6.60;;;;;;;12.84;82.79;100694.84;5041698;28;20021;-67
2022/06/12 01:32:12;;;;;;;35.42;6.55;;;;;;;12.93;82.75;100691.28;5041955;28;20075;-67
2022/06/12 01:34:38;;;;;;;22.90;6.22;;;;;;;12.96;82.74;100686.03;5041672;28;20026;-67
2022/06/12 01:37:06;;;;;;;36.97;7.93;;;;;;;13.03;82.72;100686.81;5041404;28;20021;-67
2022/06/12 01:39:31;;;;;;;30.92;7.55;;;;;;;13.09;82.47;100688.44;5068727;28;20040;-68
2022/06/12 01:42:18;;;;;;;28.17;7.25;;;;;;;13.12;82.35;100681.47;5103919;28;20031;-67
2022/06/12 01:45:17;;;;;;;25.75;6.38;;;;;;;13.10;82.02;100682.38;5104379;28;20083;-67
2022/06/12 01:47:58;;;;;;;27.50;7.32;;;;;;;13.13;81.45;100677.13;5103854;28;20024;-68
2022/06/12 01:50:52;;;;;;;37.88;7.25;;;;;;;13.12;81.64;100670.16;5103734;28;20103;-67
2022/06/12 01:53:34;;;;;;;24.45;7.18;;;;;;;13.13;81.41;100677.97;5104117;28;20097;-67
2022/06/12 01:56:02;;;;;;;;;;;;;;;13.18;80.97;100667.47;5104400;28;20032;-68
2022/06/12 01:58:48;;;;;;;24.10;6.20;;;;;;;13.19;80.78;100668.34;5103045;28;19923;-67
2022/06/12 02:01:13;;;;;;;26.50;5.70;;;;;;;13.24;80.56;100672.56;5104001;28;20087;-68
2022/06/12 02:03:47;;;;;;;22.00;5.07;;;;;;;13.27;80.55;100666.47;5104084;28;20048;-67
2022/06/12 02:06:37;;;;;;;23.85;5.60;;;;;;;13.22;80.07;100655.25;5104068;28;20027;-68
2022/06/12 02:09:10;;;;;;;21.48;6.20;;;;;;;13.31;79.74;100664.66;5104043;28;20438;-68
2022/06/12 02:14:42;;;;;;;23.67;5.30;;;;;;;13.38;79.50;100654.13;5103848;28;20054;-67
2022/06/12 02:17:13;;;;;;;18.17;4.78;;;;;;;13.41;78.71;100650.59;5103720;28;20016;-66
2022/06/12 02:19:41;;;;;;;21.17;5.00;;;;;;;13.44;78.98;100652.28;5104159;28;20031;-67
2022/06/12 02:22:17;;;;;;;19.30;4.45;;;;;;;13.40;78.69;100643.69;5103865;28;20031;-67
2022/06/12 02:24:48;;;;;;;23.02;4.72;;;;;;;13.40;78.78;100643.69;5103761;28;20428;-67
2022/06/12 02:27:27;;;;;;;18.10;5.30;;;;;;;13.39;78.58;100650.63;5103464;28;20016;-67
2022/06/12 02:30:01;;;;;;;30.77;5.85;;;;;;;13.36;78.55;100642.84;5103669;28;20069;-67
2022/06/12 02:32:56;;;;;;;19.95;5.45;;;;;;;13.37;78.66;100651.56;5103728;28;20095;-67
2022/06/12 02:35:32;;;;;;;20.52;4.70;;;;;;;13.35;78.85;100643.75;5103565;28;20028;-67
2022/06/12 02:38:02;;;;;;;21.15;5.50;;;;;;;13.34;78.96;100659.44;5103564;28;20111;-67
2022/06/12 02:40:37;;;;;;;28.02;5.35;;;;;;;13.27;79.26;100658.66;5103456;28;20058;-67
2022/06/12 02:43:10;;;;;;;20.80;6.25;;;;;;;13.27;79.56;100661.25;5103268;28;20012;-69
2022/06/12 02:45:47;;;;;;;33.33;6.55;;;;;;;13.26;79.64;100662.13;5103523;28;20042;-66
2022/06/12 02:48:13;;;;;;;24.67;5.43;;;;;;;13.27;79.62;100654.28;5103306;28;20436;-67
2022/06/12 02:51:04;;;;;;;27.05;6.45;;;;;;;13.29;79.62;100649.03;5103562;28;20035;-67
2022/06/12 02:53:38;;;;;;;19.55;5.85;;;;;;;13.33;79.53;100639.44;5103487;28;20084;-67
2022/06/12 02:56:24;;;;;;;24.60;5.82;;;;;;;13.38;79.90;100633.28;5103537;28;20032;-67
2022/06/12 02:59:14;;;;;;;33.05;6.78;;;;;;;13.43;79.85;100640.16;5103080;28;20052;-67
2022/06/12 03:01:48;;;;;;;24.30;6.35;;;;;;;13.50;79.92;100642.66;5103371;28;20024;-67
2022/06/12 03:04:26;;;;;;;26.15;5.28;;;;;;;13.60;80.14;100637.28;5103552;28;20028;-67
2022/06/12 03:06:53;;;;;;;18.13;5.20;;;;;;;13.72;79.93;100646.66;5103447;28;20024;-68
2022/06/12 03:09:19;;;;;;;24.10;5.15;;;;;;;13.82;79.74;100637.75;5104240;28;20531;-68
2022/06/12 03:11:48;;;;;;;18.95;4.90;;;;;;;14.03;79.50;100637.38;5107240;28;20034;-66
2022/06/12 03:14:18;;;;;;;25.48;6.63;;;;;;;14.10;78.51;100621.59;5107703;28;20080;-67
2022/06/12 03:16:45;;;;;;;34.50;5.95;;;;;;;14.11;78.33;100627.66;5107107;28;20030;-67
2022/06/12 03:19:13;;;;;;;20.50;5.30;;;;;;;14.03;77.96;100633.03;5107075;28;20178;-68
2022/06/12 03:21:47;;;;;;;18.42;5.93;;;;;;;13.92;78.23;100638.44;5107372;28;20266;-67
2022/06/12 03:24:37;;;;;;;32.25;7.07;;;;;;;13.86;78.42;100639.44;5107019;28;20680;-68
2022/06/12 03:27:02;;;;;;;24.10;6.70;;;;;;;13.83;78.32;100636.88;5088619;28;20479;-67
2022/06/12 03:29:43;;;;;;;26.52;6.03;;;;;;;13.85;78.75;100635.09;5106710;28;20132;-67
2022/06/12 03:32:26;;;;;;;22.67;5.18;;;;;;;13.97;79.65;100631.41;5106920;28;20021;-68
2022/06/12 03:35:08;;;;;;;30.02;5.53;;;;;;;14.35;79.89;100621.09;5106810;28;20035;-68
2022/06/12 03:37:58;;;;;;;20.00;5.57;;;;;;;14.80;79.24;100614.06;5106670;28;20028;-68
2022/06/12 03:40:41;;;;;;;25.88;6.30;;;;;;;15.25;78.62;100609.53;5106987;28;20027;-68
2022/06/12 03:43:10;;;;;;;27.15;4.95;;;;;;;15.77;76.64;100616.09;5106522;28;20028;-68
2022/06/12 03:45:45;;;;;;;27.60;5.35;;;;;;;16.15;74.68;100606.31;5106670;28;20116;-68
2022/06/12 03:48:19;;;;;;;24.05;4.93;;;;;;;16.52;72.54;100614.03;5106638;28;20031;-68
2022/06/12 03:51:22;;;;;;;28.27;5.53;;;;;;;16.92;72.00;100611.91;5106669;28;20077;-68
2022/06/12 03:53:53;;;;;;;19.73;5.15;;;;;;;17.27;69.41;100611.72;5106597;28;20430;-68
2022/06/12 03:59:17;;;;;;;21.00;5.90;;;;;;;17.71;68.35;100611.09;5066206;28;20067;-68
2022/06/12 04:01:45;;;;;;;24.05;4.85;;;;;;;17.95;66.54;100613.75;5066089;28;20111;-68
2022/06/12 04:04:13;;;;;;;24.63;4.63;;;;;;;18.22;65.99;100608.44;5066227;28;20020;-68
2022/06/12 04:06:40;;;;;;;26.40;4.82;;;;;;;18.34;64.96;100609.72;5065910;28;20057;-68
2022/06/12 04:09:12;;;;;;;26.73;4.82;;;;;;;18.08;63.97;100614.16;5065992;28;20025;-68
2022/06/12 04:11:39;;;;;;;19.77;5.93;;;;;;;17.53;63.97;100608.19;5065842;28;20063;-68
2022/06/12 04:14:10;;;;;;;24.70;6.10;;;;;;;17.02;64.95;100621.19;5065612;28;20559;-67
2022/06/12 04:16:43;;;;;;;22.58;5.65;;;;;;;16.55;66.18;100609.53;5065773;28;20024;-68
2022/06/12 04:19:15;;;;;;;18.20;4.55;;;;;;;16.38;67.69;100607.41;5065704;28;20021;-68
2022/06/12 04:21:45;;;;;;;17.63;4.97;;;;;;;16.29;68.06;100608.56;5065701;28;20029;-67
2022/06/12 04:24:16;;;;;;;28.10;5.45;;;;;;;16.49;68.39;100609.72;5065884;28;20033;-68
2022/06/12 04:26:49;;;;;;;24.05;4.65;;;;;;;16.69;68.49;100610.88;5065556;28;20528;-68
2022/06/12 04:29:14;;;;;;;20.90;4.63;;;;;;;16.75;67.60;100609.81;5065683;28;20460;-68
2022/06/12 04:31:42;;;;;;;19.17;5.63;;;;;;;16.57;67.83;100612.97;5065723;28;20047;-68
2022/06/12 04:34:14;;;;;;;23.77;4.95;;;;;;;16.41;68.21;100612.56;5065747;28;20076;-68
2022/06/12 04:36:42;;;;;;;20.45;5.72;;;;;;;16.33;69.27;100614.53;5065445;28;20036;-68
2022/06/12 04:39:08;;;;;;;21.40;4.78;;;;;;;16.44;69.07;100611.59;5065407;28;20108;-68
2022/06/12 04:41:35;;;;;;;21.90;4.93;;;;;;;16.38;68.69;100606.53;5065260;28;20028;-68
2022/06/12 04:44:02;;;;;;;25.92;6.50;;;;;;;16.10;68.84;100606.44;5065182;28;20029;-67
2022/06/12 04:46:28;;;;;;;23.98;5.50;;;;;;;15.88;69.26;100619.25;5065530;28;20021;-67
2022/06/12 04:48:56;;;;;;;23.10;5.50;;;;;;;15.61;69.63;100604.25;5065182;28;20397;-68
2022/06/12 04:51:21;;;;;;;39.53;7.18;;;;;;;15.51;70.42;100618.44;5065228;28;20398;-68
2022/06/12 04:53:48;;;;;;;22.92;5.13;;;;;;;15.30;71.35;100617.25;5065011;28;20021;-68
2022/06/12 04:56:15;;;;;;;23.80;5.53;;;;;;;15.21;72.30;100626.19;5065097;28;20028;-67
2022/06/12 04:58:40;;;;;;;23.17;5.65;;;;;;;15.02;73.25;100621.41;5100934;28;20039;-68
2022/06/12 05:01:06;;;;;;;27.48;6.53;;;;;;;14.92;73.86;100627.75;5104949;28;20020;-67
2022/06/12 05:03:32;;;;;;;26.52;6.53;;;;;;;14.88;74.19;100621.72;5104895;28;20027;-70
2022/06/12 05:05:58;;;;;;;26.45;5.45;;;;;;;14.84;74.35;100613.09;5086622;28;20027;-64
2022/06/12 05:08:23;;;;;;;30.52;6.18;;;;;;;14.84;74.76;100617.47;5104928;28;20042;-64
2022/06/12 05:10:49;;;;;;;27.52;6.35;;;;;;;14.77;75.11;100608.88;5104826;28;20043;-65
2022/06/12 05:13:15;;;;;;;26.85;6.38;;;;;;;14.84;75.18;100610.47;5104787;28;20031;-65
2022/06/12 05:15:43;;;;;;;21.58;5.47;;;;;;;14.86;75.25;100607.81;5105053;28;20106;-67
2022/06/12 05:18:11;;;;;;;27.27;6.78;;;;;;;14.83;75.26;100613.13;5104857;28;20086;-66
2022/06/12 05:20:37;;;;;;;31.15;6.57;;;;;;;14.78;75.45;100602.75;5105123;28;20020;-66
2022/06/12 05:23:03;;;;;;;25.27;6.22;;;;;;;14.81;75.66;100604.47;5104997;28;20042;-66
2022/06/12 05:25:30;;;;;;;32.20;5.80;;;;;;;14.81;75.77;100605.31;5086431;28;20709;-66
2022/06/12 05:27:56;;;;;;;29.13;6.57;;;;;;;14.84;75.98;100609.63;5104527;28;20542;-66
2022/06/12 05:30:28;;;;;;;26.15;6.32;;;;;;;14.89;75.69;100614.75;5104872;28;20034;-66
2022/06/12 05:32:56;;;;;;;31.55;6.18;;;;;;;14.86;75.93;100608.69;5104064;28;20023;-66
2022/06/12 05:35:22;;;;;;;24.30;5.70;;;;;;;14.85;76.26;100613.94;5104560;28;20020;-66
2022/06/12 05:37:49;;;;;;;30.02;6.75;;;;;;;14.87;76.03;100610.41;5104606;28;20055;-66
2022/06/12 05:40:19;;;;;;;24.65;5.38;;;;;;;14.92;76.25;100610.28;5104617;28;20046;-69
2022/06/12 05:42:44;;;;;;;21.13;6.05;;;;;;;14.97;75.92;100604.94;5104272;28;20115;-64
2022/06/12 05:45:19;;;;;;;24.45;6.68;;;;;;;15.04;75.79;100616.13;5104670;28;20062;-65
2022/06/12 05:47:55;;;;;;;24.05;5.32;;;;;;;15.00;75.88;100612.72;5104378;28;20114;-70
2022/06/12 05:50:23;;;;;;;25.83;6.00;;;;;;;15.01;76.20;100616.19;5104309;28;20024;-66
2022/06/12 05:52:49;;;;;;;21.35;5.15;;;;;;;15.02;76.61;100618.78;5104186;28;20039;-66
2022/06/12 05:55:15;;;;;;;24.35;6.88;;;;;;;15.11;76.31;100623.78;5104493;28;20021;-66
2022/06/12 05:57:40;;;;;;;20.50;5.63;;;;;;;15.14;76.07;100624.63;5103938;28;20044;-66
2022/06/12 06:00:10;;;;;;;24.92;6.88;;;;;;;15.14;75.92;100616.78;5104244;28;20032;-66
2022/06/12 06:02:38;;;;;;;27.05;5.90;;;;;;;15.02;76.05;100612.69;5103913;28;20020;-67
2022/06/12 06:05:06;;;;;;;23.75;6.30;;;;;;;15.14;76.05;100617.66;5104123;28;20154;-66
2022/06/12 06:07:31;;;;;;;23.42;5.15;;;;;;;15.11;75.97;100618.56;5104029;28;20077;-66
2022/06/12 06:09:56;;;;;;;29.98;5.75;;;;;;;15.15;75.85;100619.34;5085684;28;20012;-67
2022/06/12 06:12:22;;;;;;;27.30;5.88;;;;;;;15.22;76.00;100615.69;5085595;28;20024;-68
2022/06/12 06:14:47;;;;;;;28.10;5.80;;;;;;;15.34;75.39;100609.28;5103897;28;20203;-68
2022/06/12 06:17:12;;;;;;;22.65;5.90;;;;;;;15.16;75.48;100591.47;5103877;28;20529;-67
2022/06/12 06:19:38;;;;;;;30.90;7.10;;;;;;;15.31;75.03;100619.84;5103930;28;20136;-67
2022/06/12 06:22:04;;;;;;;21.02;4.40;;;;;;;15.33;75.11;100618.06;5104076;28;20157;-67
2022/06/12 06:24:29;;;;;;;31.20;6.18;;;;;;;15.35;75.23;100604.94;5103656;28;20451;-68
2022/06/12 06:26:55;;;;;;;28.17;7.15;;;;;;;15.41;74.62;100614.38;5103070;28;20074;-68
2022/06/12 06:29:20;;;;;;;24.48;5.97;;;;;;;15.43;74.58;100618.66;5103531;28;20020;-68
2022/06/12 06:31:45;;;;;;;24.42;5.80;;;;;;;15.54;74.42;100610.56;5103653;28;20020;-68
2022/06/12 06:34:11;;;;;;;23.10;6.70;;;;;;;15.63;73.71;100614.69;5085258;28;20024;-68
2022/06/12 06:36:36;;;;;;;20.77;5.45;;;;;;;15.79;73.59;100606.41;5104081;28;20062;-68
2022/06/12 06:39:02;;;;;;;23.05;5.15;;;;;;;16.12;73.30;100601.16;5103640;28;20047;-68
2022/06/12 06:41:29;;;;;;;19.70;5.00;;;;;;;16.44;72.74;100607.22;5103640;28;20131;-68
2022/06/12 06:46:39;;;;;;;22.10;5.82;;;;;;;17.05;69.32;100605.38;5103970;28;20085;-68
2022/06/12 06:49:06;;;;;;;22.45;5.72;;;;;;;17.16;68.76;100614.66;5103448;28;20020;-68
2022/06/12 06:51:32;;;;;;;23.02;5.88;;;;;;;17.33;68.51;100612.34;5103649;28;20028;-68
2022/06/12 06:53:58;;;;;;;19.33;4.30;;;;;;;17.53;66.90;100618.69;5103753;28;20043;-68
2022/06/12 06:56:23;;;;;;;26.17;5.05;;;;;;;17.53;66.03;100608.19;5103645;28;20030;-69
2022/06/12 06:58:49;;;;;;;22.92;6.05;;;;;;;17.63;65.68;100623.63;5102928;28;20578;-68
2022/06/12 07:01:15;;;;;;;19.42;5.90;;;;;;;17.54;66.05;100623.03;5103244;28;20097;-67
2022/06/12 07:03:40;;;;;;;23.13;5.25;;;;;;;17.48;66.31;100619.78;5103272;28;20020;-68
2022/06/12 07:06:06;;;;;;;26.63;5.38;;;;;;;17.44;65.99;100611.13;5103289;28;20031;-67
2022/06/12 07:08:31;;;;;;;25.67;5.75;;;;;;;17.25;66.44;100593.41;5102968;28;20031;-68
2022/06/12 07:10:57;;;;;;;26.83;5.13;;;;;;;17.35;66.34;100614.91;5103112;28;20088;-68
2022/06/12 07:13:23;;;;;;;23.15;5.05;;;;;;;17.44;66.82;100619.84;5103122;28;20016;-66
2022/06/12 07:15:49;;;;;;;24.13;5.07;;;;;;;17.54;65.91;100614.31;5103311;28;20036;-65
2022/06/12 07:18:15;;;;;;;23.38;4.75;;;;;;;17.49;66.10;100616.22;5102997;28;20020;-66
2022/06/12 07:20:48;;;;;;;16.38;4.43;;;;;;;17.64;65.89;100615.69;5103259;28;20099;-66
2022/06/12 07:23:17;;;;;;;21.77;5.22;;;;;;;17.75;65.50;100623.19;5102979;28;20480;-66
2022/06/12 07:25:45;;;;;;;27.75;7.38;;;;;;;17.92;65.35;100619.13;5103200;28;20035;-66
2022/06/12 07:28:11;;;;;;;27.17;5.55;;;;;;;17.96;65.19;100612.84;5103125;28;20080;-66
2022/06/12 07:30:38;;;;;;;18.25;5.40;;;;;;;17.90;64.83;100608.66;5103398;28;20032;-67
2022/06/12 07:33:05;;;;;;;17.73;3.90;;;;;;;17.69;64.27;100602.41;5103231;28;20021;-66
2022/06/12 07:35:30;;;;;;;19.92;4.95;;;;;;;17.50;64.89;100623.19;5103307;28;20023;-67
2022/06/12 07:37:56;;;;;;;27.63;6.22;;;;;;;17.26;65.42;100625.72;5103038;28;20024;-66
2022/06/12 07:40:29;;;;;;;26.58;6.25;;;;;;;17.05;65.94;100625.47;5103229;28;20046;-67
2022/06/12 07:42:54;;;;;;;15.52;6.15;;;;;;;16.86;66.65;100607.72;5102988;28;20039;-66
2022/06/12 07:45:20;;;;;;;22.83;5.60;;;;;;;16.84;66.52;100612.16;5103032;28;20074;-66
2022/06/12 07:47:46;;;;;;;18.90;5.38;;;;;;;16.72;67.28;100619.47;5102900;28;20491;-66
2022/06/12 07:50:12;;;;;;;23.08;5.53;;;;;;;16.67;67.76;100617.91;5103111;28;20024;-66
2022/06/12 07:52:39;;;;;;;19.08;5.32;;;;;;;16.57;68.12;100610.34;5103005;28;20028;-67
2022/06/12 07:55:07;;;;;;;22.33;6.05;;;;;;;16.56;68.60;100613.88;5103742;28;20239;-66
2022/06/12 07:57:32;;;;;;;19.88;5.18;;;;;;;16.55;68.79;100612.13;5106135;28;20043;-66
2022/06/12 07:59:58;;;;;;;22.83;5.57;;;;;;;16.50;69.09;100619.31;5106437;28;20537;-66
2022/06/12 08:02:23;;;;;;;16.95;4.43;;;;;;;16.43;68.81;100625.63;5106495;28;20030;-67
2022/06/12 08:04:49;;;;;;;30.42;6.97;;;;;;;16.24;69.20;100620.91;5106152;28;20107;-66
2022/06/12 08:07:14;;;;;;;21.30;4.93;;;;;;;16.13;69.78;100622.97;5106220;28;20043;-66
2022/06/12 08:09:40;;;;;;;30.15;5.63;;;;;;;16.09;70.21;100619.56;5106120;28;20077;-66
2022/06/12 08:12:05;;;;;;;30.95;5.50;;;;;;;16.04;70.25;100619.72;5105785;28;20403;-65
2022/06/12 08:14:31;;;;;;;21.48;5.57;;;;;;;16.12;70.56;100618.66;5106401;28;20016;-66
2022/06/12 08:16:56;;;;;;;25.92;5.60;;;;;;;16.08;70.31;100623.09;5106256;28;20031;-66
2022/06/12 08:22:08;;;;;;;10.57;4.35;;;;;;;16.12;70.24;100610.78;5106528;28;20051;-66
2022/06/12 08:24:35;;;;;;;20.73;5.60;;;;;;;16.10;70.25;100605.59;5106225;28;20092;-66
2022/06/12 08:27:00;;;;;;;19.40;5.80;;;;;;;16.08;70.92;100605.66;5106015;28;20024;-65
2022/06/12 08:29:26;;;;;;;17.85;5.00;;;;;;;16.13;70.80;100602.03;5106045;28;20468;-66
2022/06/12 08:32:01;;;;;;;17.90;5.03;;;;;;;16.53;70.79;100597.38;5106055;28;20028;-66
2022/06/12 08:34:37;;;;;;;20.10;5.75;;;;;;;17.37;70.19;100602.59;5106208;28;20027;-66
2022/06/12 08:37:08;;;;;;;20.08;4.90;;;;;;;18.40;67.11;100592.88;5105896;28;20035;-67
2022/06/12 08:39:34;;;;;;;15.43;4.65;;;;;;;19.12;63.79;100582.19;5105834;28;20038;-66
2022/06/12 08:42:14;;;;;;;21.58;4.40;;;;;;;19.67;61.58;100592.16;5105764;28;20107;-66
2022/06/12 08:45:16;;;;;;;15.00;4.53;;;;;;;19.81;59.39;100588.91;5105790;28;20032;-66
2022/06/12 08:47:48;;;;;;;13.85;4.63;;;;;;;19.54;58.51;100583.91;5101358;28;20039;-66
2022/06/12 08:50:25;;;;;;;20.42;5.05;;;;;;;19.41;60.50;100585.38;5105887;28;20071;-67
2022/06/12 08:53:24;;;;;;;18.02;5.20;;;;;;;19.44;59.87;100583.47;5105871;28;20049;-68
2022/06/12 08:56:00;;;;;;;16.25;4.25;;;;;;;19.54;59.40;100585.69;5078418;28;20064;-66
2022/06/12 08:58:49;;;;;;;20.00;4.72;;;;;;;19.59;58.86;100586.34;5104853;28;20051;-66
2022/06/12 09:01:15;;;;;;;18.95;4.50;;;;;;;19.43;58.68;100581.75;5105133;28;20024;-68
2022/06/12 09:03:44;;;;;;;23.05;5.32;;;;;;;19.51;59.69;100589.31;5105050;28;20511;-67
2022/06/12 09:06:17;;;;;;;27.02;5.30;;;;;;;19.54;59.25;100581.28;5104767;28;20027;-67
2022/06/12 09:08:49;;;;;;;15.90;4.82;;;;;;;19.48;59.48;100573.66;5104942;28;20026;-68
2022/06/12 09:11:18;;;;;;;;;;;;;;;19.41;59.01;100575.69;5105784;28;20027;-66
2022/06/12 09:14:05;;;;;;;23.77;5.78;;;;;;;19.06;59.89;100576.22;5105121;28;19908;-66
2022/06/12 09:16:59;;;;;;;20.00;5.07;;;;;;;18.87;60.73;100575.28;5105279;28;20028;-67
2022/06/12 09:19:28;;;;;;;21.38;5.10;;;;;;;18.75;61.14;100574.00;5061860;28;20037;-67
2022/06/12 09:22:09;;;;;;;15.88;5.40;;;;;;;18.56;61.67;100572.94;5062173;28;20142;-67
2022/06/12 09:24:46;;;;;;;21.20;4.97;;;;;;;18.52;62.43;100570.50;5062022;28;20037;-66
2022/06/12 09:27:22;;;;;;;20.00;5.65;;;;;;;18.54;62.15;100552.91;5061993;28;20298;-66
2022/06/12 09:30:05;;;;;;;17.85;5.13;;;;;;;18.53;62.47;100559.94;5061684;28;20033;-67
2022/06/12 09:33:03;;;;;;;22.13;5.32;;;;;;;18.61;61.89;100559.63;5061905;28;20475;-67
2022/06/12 09:35:55;;;;;;;19.10;5.07;;;;;;;18.65;62.28;100555.09;5061606;28;20020;-66
2022/06/12 09:38:41;;;;;;;27.17;6.75;;;;;;;18.56;62.18;100551.09;5061459;28;20060;-68
2022/06/12 09:41:18;;;;;;;27.45;6.47;;;;;;;18.50;62.58;100546.91;5061313;28;20036;-69
2022/06/12 09:44:36;;;;;;;15.27;4.88;;;;;;;18.34;62.81;100551.91;5061418;28;20037;-68
2022/06/12 09:47:10;;;;;;;16.85;5.43;;;;;;;18.15;62.86;100562.25;5002309;28;20034;-68
2022/06/12 09:49:56;;;;;;;18.40;5.28;;;;;;;17.89;63.71;100550.94;5002075;28;20065;-68
2022/06/12 09:52:35;;;;;;;20.10;5.40;;;;;;;17.63;64.42;100555.38;5002386;28;20121;-68
2022/06/12 09:55:16;;;;;;;23.98;5.78;;;;;;;17.31;65.30;100560.84;5002068;28;20113;-68
2022/06/12 09:57:57;;;;;;;26.92;6.03;;;;;;;17.04;66.28;100558.22;5021314;28;20533;-68
2022/06/12 10:01:09;;;;;;;25.38;6.03;;;;;;;16.90;66.74;100558.66;5021532;28;20036;-68
2022/06/12 10:03:51;;;;;;;26.38;6.45;;;;;;;16.71;67.42;100552.25;4985479;28;20497;-68
2022/06/12 10:06:26;;;;;;;21.25;5.43;;;;;;;16.65;67.78;100543.72;5001628;28;20042;-68
2022/06/12 10:09:06;;;;;;;20.40;6.47;;;;;;;16.53;68.29;100548.44;5001495;28;20038;-68
2022/06/12 10:11:38;;;;;;;22.08;5.10;;;;;;;16.51;68.99;100549.38;5001797;28;20034;-68
2022/06/12 10:14:16;;;;;;;19.02;5.60;;;;;;;16.48;69.36;100542.50;5001531;28;20034;-68
2022/06/12 10:17:05;;;;;;;19.48;5.57;;;;;;;16.63;69.48;100532.44;5001285;28;20525;-68
2022/06/12 10:19:38;;;;;;;21.60;5.45;;;;;;;16.82;69.17;100528.28;5001107;28;20049;-68
2022/06/12 10:22:11;;;;;;;25.25;6.82;;;;;;;17.03;68.76;100530.28;5021009;28;20037;-68
2022/06/12 10:24:37;;;;;;;18.88;5.70;;;;;;;17.13;68.06;100536.06;5021062;28;20053;-68
2022/06/12 10:27:07;;;;;;;19.30;4.85;;;;;;;17.22;68.08;100527.91;5020727;28;20060;-68
2022/06/12 10:30:03;;;;;;;21.90;5.72;;;;;;;17.39;67.33;100531.72;5020770;28;20030;-68
2022/06/12 10:32:53;;;;;;;23.42;5.65;;;;;;;17.39;66.89;100529.94;5020783;28;20030;-68
2022/06/12 10:35:21;;;;;;;27.27;5.47;;;;;;;17.33;67.21;100525.75;5099755;28;20076;-68
2022/06/12 10:37:48;;;;;;;19.70;5.28;;;;;;;17.27;67.04;100528.59;5103224;28;20016;-68
2022/06/12 10:40:16;;;;;;;19.15;4.40;;;;;;;17.22;67.22;100523.50;5103408;28;20024;-68
2022/06/12 10:42:51;;;;;;;15.32;4.88;;;;;;;17.33;67.23;100517.88;5103173;28;20072;-67
2022/06/12 10:45:33;;;;;;;17.83;4.57;;;;;;;17.68;66.91;100511.44;5103461;28;20023;-68
2022/06/12 10:48:02;;;;;;;19.77;5.25;;;;;;;17.97;65.21;100512.13;5103587;28;20052;-70
2022/06/12 10:50:31;;;;;;;19.80;4.85;;;;;;;18.18;64.91;100509.59;5103636;28;20123;-70
2022/06/12 10:53:09;;;;;;;18.08;5.20;;;;;;;18.37;63.86;100512.38;5103401;28;20024;-70
2022/06/12 10:56:17;;;;;;;16.88;5.25;;;;;;;18.53;62.52;100504.72;5103525;28;20028;-69
2022/06/12 10:59:14;;;;;;;15.65;5.13;;;;;;;18.46;61.67;100503.28;5103000;28;20113;-69
2022/06/12 11:02:01;;;;;;;17.02;4.47;;;;;;;18.30;61.87;100501.25;5103530;28;20115;-70
2022/06/12 11:04:27;;;;;;;16.23;4.55;;;;;;;18.30;61.27;100498.63;5103272;28;20605;-70
2022/06/12 11:06:55;;;;;;;26.88;4.72;;;;;;;18.22;61.43;100503.31;5103811;28;20024;-69
2022/06/12 11:09:39;;;;;;;14.88;4.75;;;;;;;18.12;61.56;100497.56;5103197;28;20031;-70
2022/06/12 11:12:32;;;;;;;18.42;4.50;;;;;;;17.93;61.40;100493.00;5103527;28;20032;-70
2022/06/12 11:15:18;;;;;;;16.90;3.80;;;;;;;17.77;62.31;100500.59;5065633;28;20118;-69
2022/06/12 11:17:58;;;;;;;15.70;4.07;;;;;;;17.64;62.67;100492.31;5103178;28;20027;-69
2022/06/12 11:20:30;;;;;;;18.20;5.13;;;;;;;17.54;62.95;100496.19;5103577;28;20421;-70
2022/06/12 11:23:02;;;;;;;;;;;;;;;17.55;63.15;100490.03;5103682;28;20028;-70
2022/06/12 11:26:10;;;;;;;18.92;5.65;;;;;;;17.53;63.42;100476.09;5103248;28;19967;-70
2022/06/12 11:28:44;;;;;;;19.58;4.85;;;;;;;17.39;64.23;100473.97;5091816;28;20036;-70
2022/06/12 11:31:12;;;;;;;17.70;4.88;;;;;;;17.43;64.63;100479.06;5105598;28;20024;-70
2022/06/12 11:33:53;;;;;;;19.35;4.25;;;;;;;17.51;64.62;100483.19;5106857;28;20054;-69
2022/06/12 11:36:38;;;;;;;16.92;4.70;;;;;;;17.50;64.37;100476.22;5107037;28;20024;-69
2022/06/12 11:39:26;;;;;;;16.65;4.60;;;;;;;17.49;65.17;100475.38;5106898;28;20078;-70
2022/06/12 11:42:09;;;;;;;15.77;4.80;;;;;;;17.48;65.16;100478.88;5106958;28;20028;-69
2022/06/12 11:44:37;;;;;;;20.85;5.15;;;;;;;17.40;65.41;100484.41;5106596;28;20020;-70
2022/06/12 11:47:18;;;;;;;16.35;4.38;;;;;;;17.47;65.41;100471.94;5106493;28;20020;-69
2022/06/12 11:49:49;;;;;;;18.58;5.05;;;;;;;17.46;65.01;100470.22;5106600;28;20028;-70
2022/06/12 11:52:45;;;;;;;18.60;4.80;;;;;;;17.41;64.63;100467.75;5106665;28;20062;-70
2022/06/12 11:55:32;;;;;;;16.25;4.53;;;;;;;17.52;65.05;100459.50;5106521;28;20035;-70
2022/06/12 11:58:18;;;;;;;11.98;4.25;;;;;;;17.67;65.02;100458.06;5106085;28;20075;-69